sensor_id;sensor_type;location;lat;lon;timestamp;pressure;altitude;pressure_sealevel;temperature;humidity
13952;BME280;39535;52.192;9.886;2022-11-20T00:00:17;100372.56;;;-1.87;84.81
13952;BME280;39535;52.192;9.886;2022-11-20T00:02:43;100375.09;;;-1.88;84.66
13952;BME280;39535;52.192;9.886;2022-11-20T00:05:12;100381.16;;;-1.85;84.68
13952;BME280;39535;52.192;9.886;2022-11-20T00:07:39;100381.25;;;-1.82;84.64
13952;BME280;39535;52.192;9.886;2022-11-20T00:10:08;100388.22;;;-1.77;84.22
13952;BME280;39535;52.192;9.886;2022-11-20T00:12:34;100396.50;;;-1.85;84.17
13952;BME280;39535;52.192;9.886;2022-11-20T00:15:01;100410.19;;;-1.84;84.18
13952;BME280;39535;52.192;9.886;2022-11-20T00:17:27;100415.19;;;-1.87;83.25
13952;BME280;39535;52.192;9.886;2022-11-20T00:19:54;100421.91;;;-1.91;83.23
13952;BME280;39535;52.192;9.886;2022-11-20T00:22:20;100421.81;;;-1.94;83.49
13952;BME280;39535;52.192;9.886;2022-11-20T00:24:46;100424.19;;;-2.00;83.94
13952;BME280;39535;52.192;9.886;2022-11-20T00:27:16;100410.50;;;-2.02;84.06
13952;BME280;39535;52.192;9.886;2022-11-20T00:29:42;100416.53;;;-2.00;83.79
13952;BME280;39535;52.192;9.886;2022-11-20T00:32:08;100417.56;;;-1.93;83.46
13952;BME280;39535;52.192;9.886;2022-11-20T00:34:35;100426.28;;;-1.87;83.06
13952;BME280;39535;52.192;9.886;2022-11-20T00:37:01;100444.25;;;-1.85;82.80
13952;BME280;39535;52.192;9.886;2022-11-20T00:39:28;100456.75;;;-1.94;82.08
13952;BME280;39535;52.192;9.886;2022-11-20T00:41:54;100472.88;;;-1.97;81.85
13952;BME280;39535;52.192;9.886;2022-11-20T00:44:22;100486.63;;;-1.93;81.48
13952;BME280;39535;52.192;9.886;2022-11-20T00:46:49;100500.94;;;-2.00;81.29
13952;BME280;39535;52.192;9.886;2022-11-20T00:49:15;100502.56;;;-2.02;81.59
13952;BME280;39535;52.192;9.886;2022-11-20T00:51:41;100503.03;;;-2.14;82.08
13952;BME280;39535;52.192;9.886;2022-11-20T00:54:08;100480.03;;;-2.12;82.66
13952;BME280;39535;52.192;9.886;2022-11-20T00:56:40;100477.47;;;-2.14;81.89
13952;BME280;39535;52.192;9.886;2022-11-20T00:59:08;100491.63;;;-2.24;81.62
13952;BME280;39535;52.192;9.886;2022-11-20T01:01:40;100497.28;;;-2.32;81.52
13952;BME280;39535;52.192;9.886;2022-11-20T01:04:06;100485.41;;;-2.30;82.23
13952;BME280;39535;52.192;9.886;2022-11-20T01:06:36;100474.25;;;-2.32;82.15
13952;BME280;39535;52.192;9.886;2022-11-20T01:09:06;100473.25;;;-2.37;82.46
13952;BME280;39535;52.192;9.886;2022-11-20T01:11:34;100468.88;;;-2.42;82.35
13952;BME280;39535;52.192;9.886;2022-11-20T01:14:04;100460.56;;;-2.34;82.59
13952;BME280;39535;52.192;9.886;2022-11-20T01:16:39;100462.13;;;-2.40;82.30
13952;BME280;39535;52.192;9.886;2022-11-20T01:19:10;100454.47;;;-2.38;82.20
13952;BME280;39535;52.192;9.886;2022-11-20T01:21:39;100467.06;;;-2.44;81.80
13952;BME280;39535;52.192;9.886;2022-11-20T01:24:07;100478.09;;;-2.45;81.08
13952;BME280;39535;52.192;9.886;2022-11-20T01:26:38;100488.91;;;-2.52;81.67
13952;BME280;39535;52.192;9.886;2022-11-20T01:29:06;100488.16;;;-2.50;82.15
13952;BME280;39535;52.192;9.886;2022-11-20T01:31:35;100476.16;;;-2.52;82.17
13952;BME280;39535;52.192;9.886;2022-11-20T01:34:04;100466.63;;;-2.56;82.27
13952;BME280;39535;52.192;9.886;2022-11-20T01:36:33;100447.22;;;-2.51;82.05
13952;BME280;39535;52.192;9.886;2022-11-20T01:39:04;100449.00;;;-2.49;82.29
13952;BME280;39535;52.192;9.886;2022-11-20T01:41:33;100444.41;;;-2.59;81.93
13952;BME280;39535;52.192;9.886;2022-11-20T01:44:20;100451.38;;;-2.55;81.99
13952;BME280;39535;52.192;9.886;2022-11-20T01:46:53;100443.50;;;-2.61;82.32
13952;BME280;39535;52.192;9.886;2022-11-20T01:49:24;100435.88;;;-2.60;82.44
13952;BME280;39535;52.192;9.886;2022-11-20T01:51:57;100421.34;;;-2.61;83.25
13952;BME280;39535;52.192;9.886;2022-11-20T01:54:28;100390.84;;;-2.56;83.29
13952;BME280;39535;52.192;9.886;2022-11-20T01:56:57;100389.06;;;-2.58;82.88
13952;BME280;39535;52.192;9.886;2022-11-20T01:59:26;100389.91;;;-2.58;82.93
13952;BME280;39535;52.192;9.886;2022-11-20T02:01:54;100394.31;;;-2.54;82.60
13952;BME280;39535;52.192;9.886;2022-11-20T02:04:23;100385.72;;;-2.56;83.13
13952;BME280;39535;52.192;9.886;2022-11-20T02:06:52;100391.22;;;-2.71;82.58
13952;BME280;39535;52.192;9.886;2022-11-20T02:09:21;100380.47;;;-2.86;83.22
13952;BME280;39535;52.192;9.886;2022-11-20T02:11:47;100369.94;;;-3.20;83.86
13952;BME280;39535;52.192;9.886;2022-11-20T02:14:14;100346.41;;;-3.36;85.10
13952;BME280;39535;52.192;9.886;2022-11-20T02:16:43;100325.78;;;-3.65;85.47
13952;BME280;39535;52.192;9.886;2022-11-20T02:19:17;100293.13;;;-3.75;86.35
13952;BME280;39535;52.192;9.886;2022-11-20T02:21:54;100261.53;;;-3.79;87.18
13952;BME280;39535;52.192;9.886;2022-11-20T02:24:24;100231.06;;;-3.76;86.81
13952;BME280;39535;52.192;9.886;2022-11-20T02:26:53;100219.56;;;-3.65;87.24
13952;BME280;39535;52.192;9.886;2022-11-20T02:29:25;100206.50;;;-3.48;87.53
13952;BME280;39535;52.192;9.886;2022-11-20T02:31:53;100200.63;;;-3.46;86.57
13952;BME280;39535;52.192;9.886;2022-11-20T02:34:21;100203.38;;;-3.40;86.70
13952;BME280;39535;52.192;9.886;2022-11-20T02:36:49;100213.03;;;-3.31;85.71
13952;BME280;39535;52.192;9.886;2022-11-20T02:39:16;100219.19;;;-3.24;86.30
13952;BME280;39535;52.192;9.886;2022-11-20T02:41:44;100212.78;;;-3.13;85.54
13952;BME280;39535;52.192;9.886;2022-11-20T02:44:10;100228.13;;;-3.11;85.23
13952;BME280;39535;52.192;9.886;2022-11-20T02:46:37;100237.66;;;-3.06;84.56
13952;BME280;39535;52.192;9.886;2022-11-20T02:49:06;100248.06;;;-3.01;84.54
13952;BME280;39535;52.192;9.886;2022-11-20T02:51:35;100263.06;;;-3.10;84.17
13952;BME280;39535;52.192;9.886;2022-11-20T02:54:01;100268.56;;;-3.24;84.62
13952;BME280;39535;52.192;9.886;2022-11-20T02:56:28;100265.28;;;-3.20;84.65
13952;BME280;39535;52.192;9.886;2022-11-20T02:58:57;100268.00;;;-3.15;84.41
13952;BME280;39535;52.192;9.886;2022-11-20T03:01:25;100270.78;;;-3.07;84.57
13952;BME280;39535;52.192;9.886;2022-11-20T03:03:51;100290.53;;;-3.03;83.33
13952;BME280;39535;52.192;9.886;2022-11-20T03:06:19;100299.50;;;-2.89;83.43
13952;BME280;39535;52.192;9.886;2022-11-20T03:08:46;100310.78;;;-2.82;83.38
13952;BME280;39535;52.192;9.886;2022-11-20T03:11:12;100332.06;;;-2.83;82.69
13952;BME280;39535;52.192;9.886;2022-11-20T03:13:38;100352.38;;;-2.86;82.41
13952;BME280;39535;52.192;9.886;2022-11-20T03:16:11;100347.41;;;-2.82;82.60
13952;BME280;39535;52.192;9.886;2022-11-20T03:18:38;100354.16;;;-2.84;82.26
13952;BME280;39535;52.192;9.886;2022-11-20T03:21:05;100373.53;;;-2.90;81.35
13952;BME280;39535;52.192;9.886;2022-11-20T03:23:34;100386.94;;;-2.96;81.86
13952;BME280;39535;52.192;9.886;2022-11-20T03:26:13;100394.94;;;-3.11;81.91
13952;BME280;39535;52.192;9.886;2022-11-20T03:28:40;100376.16;;;-3.13;82.51
13952;BME280;39535;52.192;9.886;2022-11-20T03:31:12;100359.50;;;-3.02;82.59
13952;BME280;39535;52.192;9.886;2022-11-20T03:33:40;100366.44;;;-2.97;82.04
13952;BME280;39535;52.192;9.886;2022-11-20T03:36:09;100384.19;;;-3.02;81.50
13952;BME280;39535;52.192;9.886;2022-11-20T03:38:36;100384.88;;;-3.06;81.80
13952;BME280;39535;52.192;9.886;2022-11-20T03:41:05;100377.28;;;-3.05;81.79
13952;BME280;39535;52.192;9.886;2022-11-20T03:43:34;100381.25;;;-3.13;82.32
13952;BME280;39535;52.192;9.886;2022-11-20T03:46:00;100371.84;;;-3.14;82.21
13952;BME280;39535;52.192;9.886;2022-11-20T03:48:30;100364.34;;;-3.09;82.16
13952;BME280;39535;52.192;9.886;2022-11-20T03:51:07;100368.53;;;-3.11;81.97
13952;BME280;39535;52.192;9.886;2022-11-20T03:53:33;100373.53;;;-3.14;81.62
13952;BME280;39535;52.192;9.886;2022-11-20T03:56:00;100372.34;;;-3.24;81.95
13952;BME280;39535;52.192;9.886;2022-11-20T03:58:26;100363.38;;;-3.13;81.94
13952;BME280;39535;52.192;9.886;2022-11-20T04:00:54;100372.69;;;-3.15;81.04
13952;BME280;39535;52.192;9.886;2022-11-20T04:03:21;100382.88;;;-3.15;81.11
13952;BME280;39535;52.192;9.886;2022-11-20T04:05:49;100383.59;;;-3.19;81.60
13952;BME280;39535;52.192;9.886;2022-11-20T04:08:15;100376.81;;;-3.18;81.46
13952;BME280;39535;52.192;9.886;2022-11-20T04:10:42;100372.34;;;-3.24;82.46
13952;BME280;39535;52.192;9.886;2022-11-20T04:13:09;100360.22;;;-3.30;82.33
13952;BME280;39535;52.192;9.886;2022-11-20T04:15:35;100348.66;;;-3.20;82.40
13952;BME280;39535;52.192;9.886;2022-11-20T04:18:02;100344.34;;;-3.21;82.50
13952;BME280;39535;52.192;9.886;2022-11-20T04:20:28;100330.72;;;-3.22;82.90
13952;BME280;39535;52.192;9.886;2022-11-20T04:22:56;100315.34;;;-3.23;82.70
13952;BME280;39535;52.192;9.886;2022-11-20T04:25:23;100312.06;;;-3.21;82.55
13952;BME280;39535;52.192;9.886;2022-11-20T04:27:50;100319.94;;;-3.14;82.29
13952;BME280;39535;52.192;9.886;2022-11-20T04:30:17;100329.38;;;-3.12;81.86
13952;BME280;39535;52.192;9.886;2022-11-20T04:32:43;100321.56;;;-3.16;82.57
13952;BME280;39535;52.192;9.886;2022-11-20T04:35:10;100315.47;;;-3.20;82.83
13952;BME280;39535;52.192;9.886;2022-11-20T04:37:36;100301.84;;;-3.21;83.33
13952;BME280;39535;52.192;9.886;2022-11-20T04:40:05;100283.09;;;-3.21;83.84
13952;BME280;39535;52.192;9.886;2022-11-20T04:42:33;100280.66;;;-3.18;84.06
13952;BME280;39535;52.192;9.886;2022-11-20T04:45:00;100283.53;;;-3.09;82.97
13952;BME280;39535;52.192;9.886;2022-11-20T04:47:26;100267.78;;;-2.95;83.80
13952;BME280;39535;52.192;9.886;2022-11-20T04:49:53;100264.53;;;-2.91;83.64
13952;BME280;39535;52.192;9.886;2022-11-20T04:52:21;100268.69;;;-2.95;83.07
13952;BME280;39535;52.192;9.886;2022-11-20T04:54:47;100280.59;;;-2.94;83.07
13952;BME280;39535;52.192;9.886;2022-11-20T04:57:15;100286.63;;;-2.92;83.16
13952;BME280;39535;52.192;9.886;2022-11-20T04:59:43;100289.25;;;-2.90;82.98
13952;BME280;39535;52.192;9.886;2022-11-20T05:02:10;100294.34;;;-2.90;83.23
13952;BME280;39535;52.192;9.886;2022-11-20T05:04:37;100298.84;;;-2.83;82.50
13952;BME280;39535;52.192;9.886;2022-11-20T05:07:03;100298.66;;;-2.89;82.42
13952;BME280;39535;52.192;9.886;2022-11-20T05:09:30;100291.84;;;-2.89;83.08
13952;BME280;39535;52.192;9.886;2022-11-20T05:11:58;100291.81;;;-2.90;83.28
13952;BME280;39535;52.192;9.886;2022-11-20T05:14:26;100281.78;;;-2.84;83.52
13952;BME280;39535;52.192;9.886;2022-11-20T05:16:52;100270.75;;;-2.83;83.81
13952;BME280;39535;52.192;9.886;2022-11-20T05:19:19;100266.72;;;-2.76;83.96
13952;BME280;39535;52.192;9.886;2022-11-20T05:21:46;100263.97;;;-2.83;82.16
13952;BME280;39535;52.192;9.886;2022-11-20T05:24:13;100283.09;;;-2.70;82.77
13952;BME280;39535;52.192;9.886;2022-11-20T05:26:39;100269.50;;;-2.69;83.52
13952;BME280;39535;52.192;9.886;2022-11-20T05:29:06;100256.19;;;-2.58;83.68
13952;BME280;39535;52.192;9.886;2022-11-20T05:31:34;100251.91;;;-2.60;83.51
13952;BME280;39535;52.192;9.886;2022-11-20T05:34:01;100248.47;;;-2.62;83.12
13952;BME280;39535;52.192;9.886;2022-11-20T05:36:27;100261.25;;;-2.60;82.88
13952;BME280;39535;52.192;9.886;2022-11-20T05:38:54;100265.97;;;-2.72;82.65
13952;BME280;39535;52.192;9.886;2022-11-20T05:41:21;100271.88;;;-2.75;82.65
13952;BME280;39535;52.192;9.886;2022-11-20T05:43:48;100259.66;;;-2.84;83.13
13952;BME280;39535;52.192;9.886;2022-11-20T05:46:16;100249.63;;;-2.77;83.51
13952;BME280;39535;52.192;9.886;2022-11-20T05:48:45;100267.75;;;-2.70;82.03
13952;BME280;39535;52.192;9.886;2022-11-20T05:51:14;100298.78;;;-2.85;81.49
13952;BME280;39535;52.192;9.886;2022-11-20T05:53:41;100317.00;;;-3.25;82.23
13952;BME280;39535;52.192;9.886;2022-11-20T05:56:11;100301.19;;;-3.15;83.19
13952;BME280;39535;52.192;9.886;2022-11-20T05:58:40;100293.03;;;-3.05;83.50
13952;BME280;39535;52.192;9.886;2022-11-20T06:01:08;100272.88;;;-2.97;83.40
13952;BME280;39535;52.192;9.886;2022-11-20T06:03:36;100272.22;;;-2.90;83.20
13952;BME280;39535;52.192;9.886;2022-11-20T06:06:05;100277.59;;;-2.82;83.24
13952;BME280;39535;52.192;9.886;2022-11-20T06:08:34;100280.09;;;-2.84;83.28
13952;BME280;39535;52.192;9.886;2022-11-20T06:11:03;100276.25;;;-2.71;82.74
13952;BME280;39535;52.192;9.886;2022-11-20T06:13:30;100270.16;;;-2.74;83.21
13952;BME280;39535;52.192;9.886;2022-11-20T06:15:57;100268.47;;;-2.74;83.48
13952;BME280;39535;52.192;9.886;2022-11-20T06:18:25;100268.00;;;-2.62;83.31
13952;BME280;39535;52.192;9.886;2022-11-20T06:20:59;100274.13;;;-2.84;82.73
13952;BME280;39535;52.192;9.886;2022-11-20T06:23:29;100274.78;;;-2.90;82.90
13952;BME280;39535;52.192;9.886;2022-11-20T06:25:58;100266.47;;;-2.84;83.60
13952;BME280;39535;52.192;9.886;2022-11-20T06:28:26;100251.38;;;-2.76;84.34
13952;BME280;39535;52.192;9.886;2022-11-20T06:30:53;100239.66;;;-2.70;84.22
13952;BME280;39535;52.192;9.886;2022-11-20T06:33:19;100244.53;;;-2.77;83.27
13952;BME280;39535;52.192;9.886;2022-11-20T06:35:47;100251.69;;;-2.67;83.29
13952;BME280;39535;52.192;9.886;2022-11-20T06:38:14;100261.97;;;-2.64;83.45
13952;BME280;39535;52.192;9.886;2022-11-20T06:40:42;100247.66;;;-2.59;83.78
13952;BME280;39535;52.192;9.886;2022-11-20T06:43:09;100241.72;;;-2.58;83.64
13952;BME280;39535;52.192;9.886;2022-11-20T06:45:35;100228.81;;;-2.63;84.08
13952;BME280;39535;52.192;9.886;2022-11-20T06:48:02;100217.19;;;-2.53;83.80
13952;BME280;39535;52.192;9.886;2022-11-20T06:50:29;100218.84;;;-2.55;83.90
13952;BME280;39535;52.192;9.886;2022-11-20T06:52:56;100218.88;;;-2.53;83.93
13952;BME280;39535;52.192;9.886;2022-11-20T06:55:22;100214.94;;;-2.44;83.76
13952;BME280;39535;52.192;9.886;2022-11-20T06:57:51;100206.34;;;-2.46;84.26
13952;BME280;39535;52.192;9.886;2022-11-20T07:00:18;100199.59;;;-2.44;84.54
13952;BME280;39535;52.192;9.886;2022-11-20T07:02:47;100192.09;;;-2.37;84.54
13952;BME280;39535;52.192;9.886;2022-11-20T07:05:13;100169.34;;;-2.28;84.97
13952;BME280;39535;52.192;9.886;2022-11-20T07:07:40;100167.53;;;-2.32;85.32
13952;BME280;39535;52.192;9.886;2022-11-20T07:10:07;100151.63;;;-2.22;85.20
13952;BME280;39535;52.192;9.886;2022-11-20T07:12:33;100146.69;;;-2.16;85.14
13952;BME280;39535;52.192;9.886;2022-11-20T07:15:01;100134.03;;;-2.11;85.51
13952;BME280;39535;52.192;9.886;2022-11-20T07:17:27;100134.72;;;-2.17;85.23
13952;BME280;39535;52.192;9.886;2022-11-20T07:19:54;100227.22;;;-2.32;79.60
13952;BME280;39535;52.192;9.886;2022-11-20T07:22:22;100311.75;;;-2.24;77.67
13952;BME280;39535;52.192;9.886;2022-11-20T07:24:49;100366.34;;;-2.24;77.28
13952;BME280;39535;52.192;9.886;2022-11-20T07:27:15;100396.53;;;-2.12;77.43
13952;BME280;39535;52.192;9.886;2022-11-20T07:29:42;100417.47;;;-1.96;78.48
13952;BME280;39535;52.192;9.886;2022-11-20T07:32:09;100401.38;;;-1.92;78.59
13952;BME280;39535;52.192;9.886;2022-11-20T07:34:40;100419.88;;;-1.74;79.48
13952;BME280;39535;52.192;9.886;2022-11-20T07:37:06;100413.28;;;-1.66;79.24
13952;BME280;39535;52.192;9.886;2022-11-20T07:39:33;100417.72;;;-1.60;79.35
13952;BME280;39535;52.192;9.886;2022-11-20T07:41:59;100422.25;;;-1.51;79.27
13952;BME280;39535;52.192;9.886;2022-11-20T07:44:26;100418.19;;;-1.45;79.39
13952;BME280;39535;52.192;9.886;2022-11-20T07:46:54;100396.97;;;-1.41;80.33
13952;BME280;39535;52.192;9.886;2022-11-20T07:49:23;100399.59;;;-1.37;80.04
13952;BME280;39535;52.192;9.886;2022-11-20T07:51:50;100372.13;;;-1.43;81.38
13952;BME280;39535;52.192;9.886;2022-11-20T07:54:18;100356.66;;;-1.48;81.93
13952;BME280;39535;52.192;9.886;2022-11-20T07:56:45;100339.81;;;-1.40;81.56
13952;BME280;39535;52.192;9.886;2022-11-20T07:59:11;100341.53;;;-1.40;81.56
13952;BME280;39535;52.192;9.886;2022-11-20T08:01:38;100322.75;;;-1.39;82.15
13952;BME280;39535;52.192;9.886;2022-11-20T08:04:05;100311.91;;;-1.30;81.98
13952;BME280;39535;52.192;9.886;2022-11-20T08:06:33;100308.50;;;-1.29;81.75
13952;BME280;39535;52.192;9.886;2022-11-20T08:08:59;100313.63;;;-1.29;82.43
13952;BME280;39535;52.192;9.886;2022-11-20T08:11:26;100284.56;;;-1.31;83.08
13952;BME280;39535;52.192;9.886;2022-11-20T08:14:10;100264.28;;;-1.24;83.34
13952;BME280;39535;52.192;9.886;2022-11-20T08:16:40;100244.78;;;-1.18;83.43
13952;BME280;39535;52.192;9.886;2022-11-20T08:19:06;100257.47;;;-1.23;82.79
13952;BME280;39535;52.192;9.886;2022-11-20T08:21:34;100273.03;;;-1.15;82.05
13952;BME280;39535;52.192;9.886;2022-11-20T08:24:01;100293.59;;;-1.12;80.93
13952;BME280;39535;52.192;9.886;2022-11-20T08:26:29;100320.72;;;-1.21;81.12
13952;BME280;39535;52.192;9.886;2022-11-20T08:28:56;100327.41;;;-1.26;81.35
13952;BME280;39535;52.192;9.886;2022-11-20T08:31:23;100327.03;;;-1.40;80.68
13952;BME280;39535;52.192;9.886;2022-11-20T08:33:51;100354.38;;;-1.67;81.29
13952;BME280;39535;52.192;9.886;2022-11-20T08:36:18;100330.59;;;-1.93;82.48
13952;BME280;39535;52.192;9.886;2022-11-20T08:38:48;100311.50;;;-1.76;81.94
13952;BME280;39535;52.192;9.886;2022-11-20T08:41:15;100302.00;;;-1.50;82.32
13952;BME280;39535;52.192;9.886;2022-11-20T08:43:53;100303.81;;;-1.46;81.86
13952;BME280;39535;52.192;9.886;2022-11-20T08:46:20;100322.16;;;-1.61;80.65
13952;BME280;39535;52.192;9.886;2022-11-20T08:48:47;100329.63;;;-1.38;80.31
13952;BME280;39535;52.192;9.886;2022-11-20T08:51:14;100331.72;;;-1.25;80.84
13952;BME280;39535;52.192;9.886;2022-11-20T08:53:41;100361.25;;;-1.36;79.34
13952;BME280;39535;52.192;9.886;2022-11-20T08:56:17;100412.56;;;-1.62;77.65
13952;BME280;39535;52.192;9.886;2022-11-20T08:58:52;100426.34;;;-1.85;78.23
13952;BME280;39535;52.192;9.886;2022-11-20T09:01:23;100371.00;;;-1.54;85.99
13952;BME280;39535;52.192;9.886;2022-11-20T09:03:52;100144.34;;;-1.07;90.75
13952;BME280;39535;52.192;9.886;2022-11-20T09:06:21;100055.84;;;-0.92;90.20
13952;BME280;39535;52.192;9.886;2022-11-20T09:08:53;100039.72;;;-0.88;85.80
13952;BME280;39535;52.192;9.886;2022-11-20T09:11:24;100208.94;;;-1.18;77.48
13952;BME280;39535;52.192;9.886;2022-11-20T09:13:52;100321.19;;;-1.02;77.87
13952;BME280;39535;52.192;9.886;2022-11-20T09:16:21;100372.38;;;-1.04;78.51
13952;BME280;39535;52.192;9.886;2022-11-20T09:18:51;100362.28;;;-0.97;80.46
13952;BME280;39535;52.192;9.886;2022-11-20T09:21:19;100354.28;;;-1.10;78.65
13952;BME280;39535;52.192;9.886;2022-11-20T09:23:45;100383.69;;;-0.95;78.62
13952;BME280;39535;52.192;9.886;2022-11-20T09:26:14;100374.66;;;-0.83;79.85
13952;BME280;39535;52.192;9.886;2022-11-20T09:28:44;100368.66;;;-0.83;79.10
13952;BME280;39535;52.192;9.886;2022-11-20T09:31:19;100312.69;;;-0.66;81.85
13952;BME280;39535;52.192;9.886;2022-11-20T09:33:47;100340.66;;;-0.75;77.04
13952;BME280;39535;52.192;9.886;2022-11-20T09:36:14;100428.19;;;-0.60;78.45
13952;BME280;39535;52.192;9.886;2022-11-20T09:38:42;100517.31;;;-0.82;77.46
13952;BME280;39535;52.192;9.886;2022-11-20T09:41:27;100491.41;;;-0.61;76.12
13952;BME280;39535;52.192;9.886;2022-11-20T09:44:13;100469.13;;;-0.31;81.22
13952;BME280;39535;52.192;9.886;2022-11-20T09:46:50;100403.59;;;-0.18;79.03
13952;BME280;39535;52.192;9.886;2022-11-20T09:49:31;100419.34;;;-0.38;75.65
13952;BME280;39535;52.192;9.886;2022-11-20T09:52:20;100438.66;;;-0.52;75.77
13952;BME280;39535;52.192;9.886;2022-11-20T09:54:49;100459.66;;;-0.32;79.79
13952;BME280;39535;52.192;9.886;2022-11-20T09:57:19;100474.50;;;-0.54;75.78
13952;BME280;39535;52.192;9.886;2022-11-20T09:59:50;100455.19;;;-0.41;77.77
13952;BME280;39535;52.192;9.886;2022-11-20T10:02:27;100490.03;;;-0.48;76.56
13952;BME280;39535;52.192;9.886;2022-11-20T10:04:59;100494.25;;;-0.82;74.03
13952;BME280;39535;52.192;9.886;2022-11-20T10:07:32;100566.97;;;-1.07;73.83
13952;BME280;39535;52.192;9.886;2022-11-20T10:10:00;100558.13;;;-0.88;75.21
13952;BME280;39535;52.192;9.886;2022-11-20T10:12:33;100523.94;;;-0.58;80.95
13952;BME280;39535;52.192;9.886;2022-11-20T10:15:16;100445.78;;;-0.41;78.54
13952;BME280;39535;52.192;9.886;2022-11-20T10:18:01;100416.13;;;-0.31;77.98
13952;BME280;39535;52.192;9.886;2022-11-20T10:20:41;100399.59;;;-0.07;78.89
13952;BME280;39535;52.192;9.886;2022-11-20T10:23:27;100462.22;;;-0.32;74.96
13952;BME280;39535;52.192;9.886;2022-11-20T10:26:00;100500.53;;;-0.38;74.94
13952;BME280;39535;52.192;9.886;2022-11-20T10:28:37;100560.69;;;-0.88;75.09
13952;BME280;39535;52.192;9.886;2022-11-20T10:31:17;100543.66;;;-0.86;76.04
13952;BME280;39535;52.192;9.886;2022-11-20T10:33:51;100506.84;;;-0.59;76.76
13952;BME280;39535;52.192;9.886;2022-11-20T10:36:23;100515.53;;;-0.84;76.00
13952;BME280;39535;52.192;9.886;2022-11-20T10:38:54;100526.75;;;-0.81;75.85
13952;BME280;39535;52.192;9.886;2022-11-20T10:41:25;100525.94;;;-1.08;76.49
13952;BME280;39535;52.192;9.886;2022-11-20T10:43:58;100473.16;;;-0.73;80.81
13952;BME280;39535;52.192;9.886;2022-11-20T10:46:36;100405.31;;;-0.52;76.86
13952;BME280;39535;52.192;9.886;2022-11-20T10:49:12;100455.41;;;-0.65;76.50
13952;BME280;39535;52.192;9.886;2022-11-20T10:51:49;100474.50;;;-0.54;76.99
13952;BME280;39535;52.192;9.886;2022-11-20T10:54:22;100462.03;;;-0.40;77.23
13952;BME280;39535;52.192;9.886;2022-11-20T10:56:52;100433.22;;;-0.31;77.05
13952;BME280;39535;52.192;9.886;2022-11-20T10:59:38;100456.31;;;-0.30;76.15
13952;BME280;39535;52.192;9.886;2022-11-20T11:02:18;100474.41;;;-0.25;75.96
13952;BME280;39535;52.192;9.886;2022-11-20T11:04:46;100482.31;;;-0.16;76.66
13952;BME280;39535;52.192;9.886;2022-11-20T11:07:16;100480.97;;;-0.02;75.76
13952;BME280;39535;52.192;9.886;2022-11-20T11:09:47;100464.44;;;0.24;76.79
13952;BME280;39535;52.192;9.886;2022-11-20T11:12:14;100456.25;;;0.38;77.01
13952;BME280;39535;52.192;9.886;2022-11-20T11:14:45;100473.66;;;0.15;74.06
13952;BME280;39535;52.192;9.886;2022-11-20T11:17:27;100504.75;;;0.26;74.08
13952;BME280;39535;52.192;9.886;2022-11-20T11:19:59;100533.94;;;-0.04;72.90
13952;BME280;39535;52.192;9.886;2022-11-20T11:22:28;100555.66;;;0.09;72.88
13952;BME280;39535;52.192;9.886;2022-11-20T11:24:58;100592.59;;;-0.17;73.46
13952;BME280;39535;52.192;9.886;2022-11-20T11:27:25;100588.59;;;-0.08;73.56
13952;BME280;39535;52.192;9.886;2022-11-20T11:30:03;100594.94;;;0.07;73.98
13952;BME280;39535;52.192;9.886;2022-11-20T11:32:38;100556.41;;;0.05;72.81
13952;BME280;39535;52.192;9.886;2022-11-20T11:35:11;100591.91;;;-0.12;71.72
13952;BME280;39535;52.192;9.886;2022-11-20T11:37:45;100619.47;;;-0.03;72.54
13952;BME280;39535;52.192;9.886;2022-11-20T11:40:15;100597.25;;;0.31;73.40
13952;BME280;39535;52.192;9.886;2022-11-20T11:42:42;100578.06;;;0.51;73.62
13952;BME280;39535;52.192;9.886;2022-11-20T11:45:14;100583.34;;;0.57;71.98
13952;BME280;39535;52.192;9.886;2022-11-20T11:47:45;100627.81;;;0.22;69.65
13952;BME280;39535;52.192;9.886;2022-11-20T11:50:18;100669.53;;;0.13;70.28
13952;BME280;39535;52.192;9.886;2022-11-20T11:52:50;100686.06;;;-0.08;71.79
13952;BME280;39535;52.192;9.886;2022-11-20T11:55:26;100671.44;;;-0.10;72.19
13952;BME280;39535;52.192;9.886;2022-11-20T11:57:57;100653.06;;;0.05;72.79
13952;BME280;39535;52.192;9.886;2022-11-20T12:00:27;100610.06;;;0.29;71.82
13952;BME280;39535;52.192;9.886;2022-11-20T12:03:04;100616.53;;;0.15;71.33
13952;BME280;39535;52.192;9.886;2022-11-20T12:05:38;100623.56;;;0.22;72.58
13952;BME280;39535;52.192;9.886;2022-11-20T12:08:13;100595.56;;;0.31;72.15
13952;BME280;39535;52.192;9.886;2022-11-20T12:10:45;100611.25;;;0.09;72.13
13952;BME280;39535;52.192;9.886;2022-11-20T12:13:22;100592.53;;;0.13;72.39
13952;BME280;39535;52.192;9.886;2022-11-20T12:15:54;100556.00;;;0.23;73.05
13952;BME280;39535;52.192;9.886;2022-11-20T12:18:22;100537.00;;;0.53;74.81
13952;BME280;39535;52.192;9.886;2022-11-20T12:20:59;100490.44;;;0.75;75.77
13952;BME280;39535;52.192;9.886;2022-11-20T12:23:34;100496.78;;;0.93;74.35
13952;BME280;39535;52.192;9.886;2022-11-20T12:26:17;100501.81;;;0.87;71.40
13952;BME280;39535;52.192;9.886;2022-11-20T12:28:59;100563.75;;;0.61;72.91
13952;BME280;39535;52.192;9.886;2022-11-20T12:31:47;100565.78;;;0.38;71.88
13952;BME280;39535;52.192;9.886;2022-11-20T12:34:27;100554.00;;;0.46;73.19
13952;BME280;39535;52.192;9.886;2022-11-20T12:37:01;100522.19;;;0.77;73.88
13952;BME280;39535;52.192;9.886;2022-11-20T12:39:40;100484.06;;;0.97;75.11
13952;BME280;39535;52.192;9.886;2022-11-20T12:42:31;100497.19;;;1.13;73.70
13952;BME280;39535;52.192;9.886;2022-11-20T12:45:38;100486.59;;;1.40;73.08
13952;BME280;39535;52.192;9.886;2022-11-20T12:48:25;100486.03;;;1.56;73.55
13952;BME280;39535;52.192;9.886;2022-11-20T12:51:09;100500.47;;;1.48;72.20
13952;BME280;39535;52.192;9.886;2022-11-20T12:53:46;100545.66;;;0.94;71.36
13952;BME280;39535;52.192;9.886;2022-11-20T12:56:24;100556.78;;;0.93;72.82
13952;BME280;39535;52.192;9.886;2022-11-20T12:59:04;100535.38;;;0.94;72.72
13952;BME280;39535;52.192;9.886;2022-11-20T13:01:40;100516.09;;;1.13;73.17
13952;BME280;39535;52.192;9.886;2022-11-20T13:04:24;100514.97;;;1.43;72.95